Temp: 16.2°C   Hum: 73%
  Wind: 2.9mph   Dir: WSW (239°)
  Rain: 0.6mm Rate: 0.0mm/hr
  Pressure: 1017.7mb

Historic data

Bath Spa Weather Station Historical Data
Daily Summary for May 22, 2022 Units:  English    Metric   Both
Daily Weekly Monthly Yearly Custom
  High: Low: Average:
Temperature: 71.5 °F 46.2 °F 59.3 °F
Dew Point: 57.3 °F 43.2 °F 50.4 °F
Humidity: 89% 55% 74%
Wind Speed: 7.8mph 0mph 2.9mph
Wind Gust: 13mph - -
Wind- - WSW
Pressure: 30.11 in 29.77 in -
Precipitation: 0.00 in    
Historical Graphs
 
 
Tabular Data for May 22, 2022
Time Temperature Dew Point Pressure Wind Wind Speed Wind Gust Humidity Rainfall Rate (Hourly) solar
00:09 52.9 °F 47.1 °F 30.11 in West 0.4 mph 2 mph 80.4% 0.00 in 0 W/m2
00:14 52.7 °F 47.1 °F 30.11 in Calm   1 mph 81% 0.00 in 0 W/m2
00:19 52.4 °F 46.8 °F 30.11 in Calm     81% 0.00 in 0 W/m2
00:24 52.1 °F 46.6 °F 30.11 in Calm   1 mph 81.4% 0.00 in 0 W/m2
00:29 51.8 °F 46.4 °F 30.11 in West 0.2 mph 2 mph 82% 0.00 in 0 W/m2
00:34 51.6 °F 46.4 °F 30.10 in Calm   1 mph 82.4% 0.00 in 0 W/m2
00:39 51.5 °F 46.4 °F 30.10 in West 0.7 mph 2 mph 83% 0.00 in 0 W/m2
00:44 51.2 °F 46.1 °F 30.10 in West 0.2 mph 1 mph 83% 0.00 in 0 W/m2
00:49 51.1 °F 46 °F 30.10 in West 0.2 mph 1 mph 83% 0.00 in 0 W/m2
00:54 50.9 °F 45.9 °F 30.10 in West 0.2 mph 1 mph 83.2% 0.00 in 0 W/m2
00:59 50.7 °F 45.8 °F 30.10 in Calm     83.2% 0.00 in 0 W/m2
01:04 50.6 °F 46 °F 30.10 in Calm     84% 0.00 in 0 W/m2
01:09 50.5 °F 45.9 °F 30.10 in West 0.4 mph 1 mph 84% 0.00 in 0 W/m2
01:14 50.3 °F 45.6 °F 30.10 in West 0.6 mph 2 mph 84% 0.00 in 0 W/m2
01:19 50.2 °F 45.5 °F 30.10 in West 1.2 mph 3 mph 84% 0.00 in 0 W/m2
01:24 50.2 °F 45.5 °F 30.09 in West 1.6 mph 3 mph 84% 0.00 in 0 W/m2
01:29 50.2 °F 45.5 °F 30.09 in West 0.7 mph 2 mph 84% 0.00 in 0 W/m2
01:34 50.2 °F 45.5 °F 30.09 in West 0.5 mph 2 mph 84% 0.00 in 0 W/m2
01:39 50.2 °F 45.5 °F 30.09 in Calm   1 mph 84% 0.00 in 0 W/m2
01:44 50.1 °F 45.4 °F 30.09 in Calm   1 mph 84% 0.00 in 0 W/m2
01:49 50 °F 45.3 °F 30.09 in Calm     84% 0.00 in 0 W/m2
01:54 49.8 °F 45.3 °F 30.09 in Calm   1 mph 84.3% 0.00 in 0 W/m2
01:59 49.8 °F 45.5 °F 30.09 in Calm     85% 0.00 in 0 W/m2
02:04 49.8 °F 45.5 °F 30.09 in Calm     85% 0.00 in 0 W/m2
02:09 49.6 °F 45.3 °F 30.08 in Calm     85% 0.00 in 0 W/m2
02:14 49.6 °F 45.3 °F 30.08 in Calm     85% 0.00 in 0 W/m2
02:19 49.6 °F 45.3 °F 30.08 in Calm     85% 0.00 in 0 W/m2
02:24 49.6 °F 45.3 °F 30.08 in Calm     85% 0.00 in 0 W/m2
02:29 49.5 °F 45.1 °F 30.08 in Calm     85% 0.00 in 0 W/m2
02:34 49.4 °F 45.3 °F 30.08 in Calm     85.8% 0.00 in 0 W/m2
02:39 49.1 °F 45.1 °F 30.07 in Calm     86% 0.00 in 0 W/m2
02:44 48.7 °F 44.8 °F 30.07 in Calm     86% 0.00 in 0 W/m2
02:49 48.6 °F 44.6 °F 30.07 in Calm     86% 0.00 in 0 W/m2
02:54 48.6 °F 44.6 °F 30.07 in Calm     86% 0.00 in 0 W/m2
02:59 48.4 °F 44.4 °F 30.07 in Calm     86% 0.00 in 0 W/m2
03:04 48.6 °F 44.7 °F 30.07 in Calm     86.6% 0.00 in 0 W/m2
03:09 48.6 °F 44.8 °F 30.07 in Calm     87% 0.00 in 0 W/m2
03:14 48.6 °F 44.8 °F 30.06 in West 0.2 mph 1 mph 87% 0.00 in 0 W/m2
03:19 48.4 °F 44.8 °F 30.06 in West 0.2 mph 1 mph 87% 0.00 in 0 W/m2
03:24 48.1 °F 44.5 °F 30.06 in Calm     87% 0.00 in 0 W/m2
03:29 47.9 °F 44.3 °F 30.06 in Calm     87% 0.00 in 0 W/m2
03:34 47.8 °F 44.2 °F 30.06 in Calm     87% 0.00 in 0 W/m2
03:39 47.8 °F 44.3 °F 30.06 in Calm   1 mph 87.4% 0.00 in 0 W/m2
03:44 47.8 °F 44.4 °F 30.06 in Calm   1 mph 88% 0.00 in 0 W/m2
03:49 47.7 °F 44.3 °F 30.05 in Calm     88% 0.00 in 0 W/m2
03:54 47.7 °F 44.2 °F 30.05 in Calm     88% 0.00 in 0 W/m2
03:59 47.7 °F 44.2 °F 30.05 in Calm     88% 0.00 in 0 W/m2
04:04 47.6 °F 44.1 °F 30.05 in Calm     88% 0.00 in 0 W/m2
04:08 47.5 °F 44.1 °F 30.05 in Calm     88% 0.00 in 0 W/m2
04:14 47.3 °F 43.9 °F 30.05 in Calm     88% 0.00 in 0 W/m2
04:19 47.1 °F 43.7 °F 30.05 in Calm     88% 0.00 in 0 W/m2
04:24 47.1 °F 43.7 °F 30.05 in Calm     88% 0.00 in 0 W/m2
04:29 47.1 °F 43.7 °F 30.05 in Calm     88% 0.00 in 0 W/m2
04:34 47.1 °F 43.7 °F 30.05 in Calm     88% 0.00 in 0 W/m2
04:39 46.9 °F 43.5 °F 30.05 in Calm     88% 0.00 in 0 W/m2
04:44 46.9 °F 43.4 °F 30.05 in Calm     88% 0.00 in 0 W/m2
04:49 46.8 °F 43.3 °F 30.05 in Calm     88% 0.00 in 0 W/m2
04:54 46.8 °F 43.3 °F 30.04 in Calm     88% 0.00 in 0 W/m2
04:59 46.7 °F 43.2 °F 30.04 in Calm     88% 0.00 in 0 W/m2
05:04 46.6 °F 43.2 °F 30.04 in Calm     88% 0.00 in 0 W/m2
05:09 46.6 °F 43.2 °F 30.04 in Calm     88% 0.00 in 0 W/m2
05:14 46.6 °F 43.5 °F 30.04 in Calm     89% 0.00 in 0 W/m2
05:19 46.6 °F 43.5 °F 30.04 in Calm     89% 0.00 in 5 W/m2
05:24 46.6 °F 43.5 °F 30.04 in Calm     89% 0.00 in 7 W/m2
05:29 46.4 °F 43.3 °F 30.03 in Calm     89% 0.00 in 11 W/m2
05:34 46.3 °F 43.3 °F 30.03 in Calm     89% 0.00 in 14 W/m2
05:39 46.3 °F 43.2 °F 30.03 in Calm     89% 0.00 in 16 W/m2
05:44 46.2 °F 43.2 °F 30.03 in Calm     89% 0.00 in 19 W/m2
05:49 46.3 °F 43.3 °F 30.03 in Calm     89% 0.00 in 23 W/m2
05:54 46.2 °F 43.2 °F 30.03 in Calm     89% 0.00 in 25 W/m2
05:59 46.2 °F 43.2 °F 30.03 in Calm     89% 0.00 in 28 W/m2
06:04 46.2 °F 43.2 °F 30.03 in Calm     89% 0.00 in 28 W/m2
06:09 46.3 °F 43.2 °F 30.03 in Calm     89% 0.00 in 28 W/m2
06:14 46.3 °F 43.2 °F 30.03 in Calm     89% 0.00 in 28 W/m2
06:19 46.3 °F 43.2 °F 30.03 in Calm     89% 0.00 in 30 W/m2
06:24 46.2 °F 43.2 °F 30.03 in Calm     89% 0.00 in 32 W/m2
06:29 46.2 °F 43.2 °F 30.03 in Calm     89% 0.00 in 35 W/m2
06:34 46.2 °F 43.2 °F 30.03 in Calm     89% 0.00 in 44 W/m2
06:39 46.2 °F 43.2 °F 30.03 in Calm     89% 0.00 in 60 W/m2
06:44 46.4 °F 43.3 °F 30.03 in West 1.5 mph 3 mph 89% 0.00 in 63 W/m2
06:49 46.5 °F 43.4 °F 30.03 in West 1.7 mph 4 mph 89% 0.00 in 83 W/m2
06:54 46.7 °F 43.6 °F 30.03 in West 1.8 mph 4 mph 89% 0.00 in 91 W/m2
06:59 46.8 °F 43.8 °F 30.03 in WSW 0.4 mph 4 mph 89% 0.00 in 104 W/m2
07:04 47.1 °F 44.1 °F 30.03 in Calm   2 mph 89% 0.00 in 123 W/m2
07:09 47.6 °F 44.4 °F 30.03 in WSW 0.2 mph 1 mph 88.6% 0.00 in 142 W/m2
07:14 48.1 °F 45 °F 30.03 in WSW 1.8 mph 4 mph 88.8% 0.00 in 156 W/m2
07:19 48.9 °F 45.9 °F 30.03 in WSW 1 mph 4 mph 89% 0.00 in 174 W/m2
07:24 49.7 °F 46.5 °F 30.02 in WSW 1.7 mph 3 mph 88.6% 0.00 in 192 W/m2
07:29 50.3 °F 46.9 °F 30.02 in WSW 0.6 mph 3 mph 88% 0.00 in 207 W/m2
07:34 50.9 °F 47.5 °F 30.02 in Calm   2 mph 88% 0.00 in 221 W/m2
07:39 51.8 °F 48.4 °F 30.02 in Calm   1 mph 88% 0.00 in 237 W/m2
07:44 53.5 °F 49.6 °F 30.02 in WSW 1.6 mph 4 mph 86.6% 0.00 in 253 W/m2
07:49 54.3 °F 49.5 °F 30.02 in WSW 1.6 mph 4 mph 83.8% 0.00 in 265 W/m2
07:54 55.5 °F 50 °F 30.02 in SW 3.3 mph 4 mph 81.8% 0.00 in 287 W/m2
07:59 56.2 °F 49.7 °F 30.02 in SW 1.7 mph 4 mph 79% 0.00 in 304 W/m2
08:04 56.3 °F 49.4 °F 30.02 in SW 2.2 mph 3 mph 77.8% 0.00 in 322 W/m2
08:09 56.7 °F 49.8 °F 30.02 in SW 2.5 mph 4 mph 77.8% 0.00 in 336 W/m2
08:14 56.8 °F 49.6 °F 30.02 in SW 2 mph 4 mph 76.8% 0.00 in 352 W/m2
08:19 57.3 °F 50 °F 30.01 in SSW 3.2 mph 6 mph 76.8% 0.00 in 369 W/m2
08:24 57.7 °F 50.2 °F 30.01 in South 3.7 mph 6 mph 76% 0.00 in 385 W/m2
08:29 58.3 °F 50.5 °F 30.00 in South 1.7 mph 5 mph 75.4% 0.00 in 399 W/m2
08:34 58.1 °F 50.3 °F 30.00 in SSE 2.5 mph 5 mph 75.4% 0.00 in 413 W/m2
08:39 58.7 °F 50.8 °F 30.00 in ESE 2.2 mph 6 mph 75% 0.00 in 427 W/m2
08:44 59.4 °F 51.1 °F 29.99 in ESE 1.7 mph 5 mph 74% 0.00 in 439 W/m2
08:49 59.2 °F 50.6 °F 29.99 in ESE 1.6 mph 5 mph 73.2% 0.00 in 454 W/m2
08:54 59.5 °F 51.2 °F 29.99 in ESE 1.3 mph 5 mph 74% 0.00 in 468 W/m2
08:59 60.4 °F 51.4 °F 29.99 in ESE 1.5 mph 5 mph 72% 0.00 in 480 W/m2
09:04 60.2 °F 51.2 °F 29.98 in ESE 2.7 mph 4 mph 72.2% 0.00 in 494 W/m2
09:09 60.4 °F 51.6 °F 29.98 in ESE 2.4 mph 5 mph 72.6% 0.00 in 504 W/m2
09:14 60.9 °F 51.6 °F 29.98 in ESE 2 mph 5 mph 71.4% 0.00 in 519 W/m2
09:18 61.5 °F 51.6 °F 29.98 in SE 2.7 mph 7 mph 70% 0.00 in 531 W/m2
09:24 61.6 °F 51.5 °F 29.98 in SSE 3.7 mph 7 mph 69.6% 0.00 in 543 W/m2
09:29 62 °F 51.4 °F 29.98 in SSW 4.1 mph 8 mph 68.4% 0.00 in 557 W/m2
09:34 61.7 °F 51.6 °F 29.98 in South 4.4 mph 8 mph 69.6% 0.00 in 570 W/m2
09:39 62.2 °F 52.3 °F 29.98 in South 1.8 mph 4 mph 70.2% 0.00 in 580 W/m2
09:44 63.8 °F 53.3 °F 29.98 in South 2.4 mph 7 mph 68.6% 0.00 in 592 W/m2
09:49 63.2 °F 52.5 °F 29.98 in South 4.9 mph 10 mph 68% 0.00 in 606 W/m2
09:54 62.2 °F 52.3 °F 29.98 in South 5.6 mph 11 mph 70% 0.00 in 626 W/m2
09:59 63.1 °F 52.7 °F 29.97 in SSW 3.6 mph 11 mph 68.8% 0.00 in 650 W/m2
10:04 63.2 °F 52.2 °F 29.98 in South 4.9 mph 8 mph 67.4% 0.00 in 707 W/m2
10:09 62.9 °F 52.1 °F 29.97 in South 5.6 mph 11 mph 68% 0.00 in 814 W/m2
10:14 63.4 °F 52.8 °F 29.97 in SSW 3.3 mph 7 mph 68.4% 0.00 in 837 W/m2
10:19 64.1 °F 52.9 °F 29.97 in SW 4.4 mph 10 mph 67% 0.00 in 642 W/m2
10:24 64.2 °F 53.2 °F 29.97 in SSW 3.2 mph 6 mph 67.2% 0.00 in 462 W/m2
10:29 64.6 °F 52.9 °F 29.97 in SSW 2.5 mph 7 mph 65.8% 0.00 in 418 W/m2
10:34 64.2 °F 52.6 °F 29.97 in SSW 4.5 mph 7 mph 65.8% 0.00 in 448 W/m2
10:39 63.7 °F 52.3 °F 29.97 in SSW 4.5 mph 7 mph 66.4% 0.00 in 450 W/m2
10:44 63.9 °F 52.4 °F 29.96 in SW 3.3 mph 7 mph 66.4% 0.00 in 446 W/m2
10:49 64 °F 52.5 °F 29.96 in SW 4.7 mph 10 mph 66% 0.00 in 526 W/m2
10:54 64.4 °F 52.4 °F 29.96 in SSW 3.6 mph 8 mph 65% 0.00 in 550 W/m2
10:59 64.6 °F 52.1 °F 29.96 in SSW 4.1 mph 8 mph 64% 0.00 in 589 W/m2
11:04 65 °F 52.5 °F 29.96 in SW 3.9 mph 10 mph 64% 0.00 in 696 W/m2
11:09 64.9 °F 52.4 °F 29.96 in WSW 6.4 mph 10 mph 63.8% 0.00 in 798 W/m2
11:14 65.1 °F 52.3 °F 29.96 in WSW 3.7 mph 8 mph 63.2% 0.00 in 1097 W/m2
11:19 65.6 °F 52.6 °F 29.95 in SW 4.8 mph 7 mph 62.8% 0.00 in 912 W/m2
11:24 65.7 °F 51.9 °F 29.95 in SW 2 mph 7 mph 61.2% 0.00 in 893 W/m2
11:29 65.3 °F 51.4 °F 29.95 in SSW 4 mph 9 mph 61% 0.00 in 874 W/m2
11:34 65.8 °F 52 °F 29.94 in South 3.2 mph 7 mph 61% 0.00 in 868 W/m2
11:39 66.3 °F 52.3 °F 29.94 in WSW 4.1 mph 10 mph 60.6% 0.00 in 889 W/m2
11:44 66.4 °F 52.3 °F 29.94 in WSW 4 mph 8 mph 60.4% 0.00 in 847 W/m2
11:49 66.6 °F 52.5 °F 29.94 in WSW 4.9 mph 9 mph 60.4% 0.00 in 807 W/m2
11:54 66.8 °F 52.5 °F 29.93 in West 3.1 mph 8 mph 60.2% 0.00 in 810 W/m2
11:59 66.5 °F 52.6 °F 29.93 in NW 5.9 mph 9 mph 61% 0.00 in 814 W/m2
12:04 66.8 °F 52.6 °F 29.93 in South 4 mph 11 mph 60.4% 0.00 in 838 W/m2
12:09 66.9 °F 52.5 °F 29.92 in SW 2.9 mph 8 mph 60% 0.00 in 835 W/m2
12:14 67.4 °F 52.8 °F 29.92 in SW 3 mph 8 mph 59.4% 0.00 in 833 W/m2
12:18 67.8 °F 52.9 °F 29.92 in WSW 3 mph 7 mph 59% 0.00 in 840 W/m2
12:24 68 °F 52.4 °F 29.92 in SSW 4.7 mph 8 mph 57.4% 0.00 in 856 W/m2
12:29 67.8 °F 52.4 °F 29.92 in SSW 3.2 mph 7 mph 57.8% 0.00 in 953 W/m2
12:34 68.9 °F 52.8 °F 29.92 in South 4.9 mph 8 mph 56.6% 0.00 in 939 W/m2
12:39 67.8 °F 52.2 °F 29.91 in South 2.9 mph 8 mph 57.4% 0.00 in 918 W/m2
12:44 68.4 °F 53.1 °F 29.91 in SSW 4.1 mph 9 mph 58% 0.00 in 918 W/m2
12:49 68.1 °F 52.8 °F 29.91 in SW 4.9 mph 9 mph 58.2% 0.00 in 650 W/m2
12:54 67.6 °F 52.7 °F 29.91 in SW 2.5 mph 7 mph 58.8% 0.00 in 650 W/m2
12:59 68.2 °F 53.2 °F 29.91 in WSW 3.1 mph 7 mph 58.8% 0.00 in 559 W/m2
13:04 68.7 °F 53.5 °F 29.91 in WSW 3.6 mph 9 mph 58.2% 0.00 in 974 W/m2
13:09 68.7 °F 53.5 °F 29.91 in WSW 6.6 mph 11 mph 58.4% 0.00 in 990 W/m2
13:14 68.6 °F 53.6 °F 29.91 in West 4.3 mph 8 mph 58.6% 0.00 in 947 W/m2
13:19 68.7 °F 53.8 °F 29.91 in West 5.4 mph 11 mph 59.2% 0.00 in 960 W/m2
13:24 69.1 °F 54 °F 29.91 in SW 5.2 mph 11 mph 58.8% 0.00 in 1034 W/m2
13:29 68 °F 53.3 °F 29.90 in SW 3.6 mph 8 mph 59.4% 0.00 in 538 W/m2
13:34 67.9 °F 54 °F 29.90 in WSW 7.2 mph 11 mph 61.2% 0.00 in 408 W/m2
13:39 68.8 °F 54.5 °F 29.90 in WSW 4.5 mph 10 mph 60.4% 0.00 in 1129 W/m2
13:44 69.1 °F 54 °F 29.90 in SSW 3.4 mph 7 mph 58.8% 0.00 in 1086 W/m2
13:49 69 °F 54.5 °F 29.89 in SW 5.3 mph 8 mph 59.8% 0.00 in 1014 W/m2
13:54 69.8 °F 54.4 °F 29.89 in SW 5.6 mph 13 mph 58.2% 0.00 in 1018 W/m2
13:59 69.6 °F 54 °F 29.89 in WSW 3.7 mph 9 mph 57.4% 0.00 in 976 W/m2
14:04 69.9 °F 53.9 °F 29.89 in SW 5.6 mph 9 mph 56.8% 0.00 in 329 W/m2
14:09 69.2 °F 53.5 °F 29.88 in SSW 5 mph 9 mph 57.4% 0.00 in 877 W/m2
14:14 69.5 °F 53.5 °F 29.88 in SW 4.2 mph 10 mph 56.6% 0.00 in 872 W/m2
14:19 69.5 °F 53.2 °F 29.89 in SSW 4.5 mph 10 mph 56.2% 0.00 in 909 W/m2
14:24 69.4 °F 53.4 °F 29.88 in SSW 4.7 mph 11 mph 56.8% 0.00 in 969 W/m2
14:29 70.6 °F 53.8 °F 29.88 in SW 5.3 mph 11 mph 55.2% 0.00 in 967 W/m2
14:34 71.2 °F 54.2 °F 29.88 in WSW 4 mph 10 mph 55% 0.00 in 951 W/m2
14:39 70.7 °F 53.8 °F 29.88 in SSW 5.2 mph 8 mph 55% 0.00 in 798 W/m2
14:44 69.3 °F 53.3 °F 29.88 in SSW 5 mph 10 mph 56.8% 0.00 in 1014 W/m2
14:49 69.2 °F 53.5 °F 29.88 in South 4.1 mph 8 mph 57.4% 0.00 in 253 W/m2
14:54 69.8 °F 54 °F 29.87 in SSW 4.7 mph 9 mph 57.4% 0.00 in 993 W/m2
14:59 70.5 °F 54.1 °F 29.87 in SSW 4 mph 10 mph 56% 0.00 in 930 W/m2
15:04 70.7 °F 54.3 °F 29.87 in WSW 7.6 mph 13 mph 56.2% 0.00 in 963 W/m2
15:09 70.3 °F 54.3 °F 29.87 in SW 5 mph 11 mph 57% 0.00 in 751 W/m2
15:14 70.8 °F 54.7 °F 29.87 in WSW 5.6 mph 9 mph 56.8% 0.00 in 1069 W/m2
15:19 70.3 °F 54.8 °F 29.87 in SW 6 mph 12 mph 58% 0.00 in 1032 W/m2
15:24 70 °F 54.6 °F 29.86 in SW 4.1 mph 11 mph 58.2% 0.00 in 345 W/m2
15:29 69.6 °F 54.7 °F 29.86 in SW 4.4 mph 8 mph 59% 0.00 in 489 W/m2
15:34 69.3 °F 54.5 °F 29.86 in WSW 4.5 mph 10 mph 59.2% 0.00 in 872 W/m2
15:39 70.3 °F 55.4 °F 29.86 in WNW 5.8 mph 11 mph 59.2% 0.00 in 872 W/m2
15:44 70.2 °F 55.5 °F 29.86 in West 3.2 mph 11 mph 59.6% 0.00 in 265 W/m2
15:49 70.4 °F 55.4 °F 29.86 in West 4 mph 7 mph 58.8% 0.00 in 272 W/m2
15:54 70 °F 55 °F 29.85 in SSW 3.4 mph 8 mph 59% 0.00 in 292 W/m2
15:59 69.6 °F 54.7 °F 29.85 in South 3.6 mph 7 mph 59% 0.00 in 886 W/m2
16:04 69.7 °F 54.8 °F 29.85 in South 4.4 mph 11 mph 59% 0.00 in 891 W/m2
16:09 69.5 °F 54.4 °F 29.85 in SW 5.9 mph 11 mph 58.6% 0.00 in 471 W/m2
16:14 69.3 °F 54.5 °F 29.85 in WSW 3.4 mph 8 mph 59.2% 0.00 in 301 W/m2
16:19 69.3 °F 54.9 °F 29.84 in West 4.5 mph 9 mph 60% 0.00 in 299 W/m2
16:24 69.5 °F 54.8 °F 29.84 in WSW 4.4 mph 9 mph 59.6% 0.00 in 819 W/m2
16:29 69.6 °F 55.1 °F 29.84 in West 3.7 mph 8 mph 60% 0.00 in 814 W/m2
16:34 70.6 °F 55.6 °F 29.84 in SSW 6.2 mph 11 mph 59.2% 0.00 in 795 W/m2
16:39 71.2 °F 55.4 °F 29.84 in SW 4.2 mph 9 mph 57.4% 0.00 in 758 W/m2
16:44 70.5 °F 55.4 °F 29.84 in SW 6.2 mph 11 mph 58.8% 0.00 in 715 W/m2
16:49 69.8 °F 55.4 °F 29.84 in SSW 4.4 mph 12 mph 60.2% 0.00 in 817 W/m2
16:54 70.7 °F 55.9 °F 29.84 in SSW 4.2 mph 9 mph 59.6% 0.00 in 796 W/m2
16:59 71.3 °F 55.6 °F 29.83 in SW 5.1 mph 9 mph 57.4% 0.00 in 777 W/m2
17:04 71.5 °F 55.7 °F 29.83 in SW 3.9 mph 9 mph 57.4% 0.00 in 705 W/m2
17:09 71 °F 55.1 °F 29.83 in South 4.3 mph 8 mph 57.2% 0.00 in 418 W/m2
17:14 70 °F 55 °F 29.83 in SW 4.1 mph 8 mph 59% 0.00 in 441 W/m2
17:19 70.2 °F 55.4 °F 29.83 in SW 3.3 mph 7 mph 59.4% 0.00 in 329 W/m2
17:24 70 °F 55.1 °F 29.83 in SW 3.9 mph 7 mph 59.2% 0.00 in 336 W/m2
17:29 69.5 °F 54.9 °F 29.83 in SW 4.1 mph 10 mph 60% 0.00 in 279 W/m2
17:34 69.3 °F 55.2 °F 29.83 in SW 5.1 mph 8 mph 60.8% 0.00 in 260 W/m2
17:39 69.1 °F 55.2 °F 29.83 in West 5.4 mph 9 mph 61.4% 0.00 in 244 W/m2
17:44 69.2 °F 55.5 °F 29.82 in WSW 6.5 mph 10 mph 61.8% 0.00 in 241 W/m2
17:49 68.9 °F 55 °F 29.82 in SW 5.5 mph 9 mph 61.2% 0.00 in 243 W/m2
17:54 68.8 °F 55.2 °F 29.82 in WSW 5.8 mph 12 mph 61.8% 0.00 in 267 W/m2
17:59 68.7 °F 55.3 °F 29.82 in West 4.8 mph 12 mph 62.2% 0.00 in 308 W/m2
18:04 68.8 °F 55.3 °F 29.82 in West 5.8 mph 10 mph 62% 0.00 in 272 W/m2
18:09 68.5 °F 56.2 °F 29.82 in WNW 5.4 mph 10 mph 64.8% 0.00 in 311 W/m2
18:14 68.2 °F 56.9 °F 29.82 in West 7.8 mph 12 mph 67.2% 0.00 in 360 W/m2
18:19 68.2 °F 57.2 °F 29.82 in West 4.4 mph 11 mph 68% 0.00 in 541 W/m2
18:24 68.5 °F 57.3 °F 29.82 in West 7.8 mph 12 mph 67.6% 0.00 in 548 W/m2
18:29 68.2 °F 57.2 °F 29.82 in West 4.8 mph 9 mph 68% 0.00 in 432 W/m2
18:34 67.7 °F 57 °F 29.81 in West 4.4 mph 10 mph 68.8% 0.00 in 401 W/m2
18:39 67.5 °F 56.8 °F 29.81 in West 5.2 mph 9 mph 68.6% 0.00 in 281 W/m2
18:44 67 °F 56.3 °F 29.81 in West 4.6 mph 9 mph 68.4% 0.00 in 315 W/m2
18:49 66.4 °F 56 °F 29.81 in WNW 5.2 mph 9 mph 69.2% 0.00 in 86 W/m2
18:54 65.5 °F 55.4 °F 29.81 in WNW 6.6 mph 11 mph 70% 0.00 in 109 W/m2
18:59 65 °F 55.4 °F 29.81 in WNW 4.2 mph 10 mph 71% 0.00 in 91 W/m2
19:04 64.9 °F 55.4 °F 29.81 in WNW 6 mph 10 mph 71.2% 0.00 in 83 W/m2
19:09 64.6 °F 55 °F 29.81 in WNW 4.5 mph 10 mph 71% 0.00 in 97 W/m2
19:14 64.5 °F 54.8 °F 29.81 in WNW 5.5 mph 10 mph 70.8% 0.00 in 105 W/m2
19:19 64.1 °F 54.5 °F 29.81 in West 7 mph 10 mph 70.8% 0.00 in 98 W/m2
19:24 63.9 °F 54.7 °F 29.81 in WNW 5.6 mph 10 mph 71.8% 0.00 in 90 W/m2
19:29 63.9 °F 54.5 °F 29.81 in WNW 6.3 mph 10 mph 71.6% 0.00 in 88 W/m2
19:34 63.5 °F 54.2 °F 29.81 in WNW 7 mph 10 mph 71.8% 0.00 in 84 W/m2
19:39 63.2 °F 54.4 °F 29.81 in WNW 4.9 mph 10 mph 73% 0.00 in 81 W/m2
19:44 63 °F 54.3 °F 29.81 in WNW 6 mph 10 mph 73.4% 0.00 in 84 W/m2
19:49 62.8 °F 54.3 °F 29.81 in West 4.8 mph 10 mph 74% 0.00 in 88 W/m2
19:54 62.5 °F 54.3 °F 29.81 in WNW 6 mph 9 mph 74.6% 0.00 in 86 W/m2
19:59 62.4 °F 54.3 °F 29.81 in WNW 3 mph 7 mph 75% 0.00 in 76 W/m2
20:04 62.4 °F 54.2 °F 29.81 in West 4.4 mph 9 mph 74.4% 0.00 in 67 W/m2
20:09 62.2 °F 53.7 °F 29.80 in WNW 6 mph 11 mph 74% 0.00 in 62 W/m2
20:14 62 °F 53.5 °F 29.80 in West 5.6 mph 10 mph 74% 0.00 in 46 W/m2
20:19 61.9 °F 53.6 °F 29.80 in West 4.8 mph 9 mph 74.4% 0.00 in 32 W/m2
20:24 61.8 °F 53.8 °F 29.80 in West 3.6 mph 9 mph 75% 0.00 in 28 W/m2
20:29 61.6 °F 53.7 °F 29.80 in WNW 4.9 mph 9 mph 75% 0.00 in 26 W/m2
20:34 61.3 °F 53.4 °F 29.80 in WNW 5.6 mph 10 mph 75% 0.00 in 21 W/m2
20:39 61.2 °F 53.3 °F 29.80 in WNW 4.2 mph 9 mph 75% 0.00 in 12 W/m2
20:44 61.1 °F 53.2 °F 29.80 in WNW 4.5 mph 8 mph 75% 0.00 in 11 W/m2
20:49 60.7 °F 52.8 °F 29.80 in WNW 5.7 mph 10 mph 75% 0.00 in 9 W/m2
20:54 60.3 °F 52.5 °F 29.80 in WNW 4.5 mph 9 mph 75.2% 0.00 in 7 W/m2
20:59 60.1 °F 52.5 °F 29.80 in WNW 4.2 mph 9 mph 76% 0.00 in 5 W/m2
21:04 59.8 °F 52 °F 29.80 in WNW 7.4 mph 13 mph 75.4% 0.00 in 0 W/m2
21:09 59.5 °F 51.6 °F 29.80 in WNW 5.7 mph 11 mph 75% 0.00 in 0 W/m2
21:14 59.4 °F 51.8 °F 29.80 in WNW 5.6 mph 10 mph 76% 0.00 in 0 W/m2
21:19 59.4 °F 51.8 °F 29.80 in WNW 6 mph 10 mph 76% 0.00 in 0 W/m2
21:24 59.2 °F 51.6 °F 29.80 in NW 4.9 mph 9 mph 76% 0.00 in 0 W/m2
21:29 59.2 °F 52 °F 29.80 in WNW 5.6 mph 9 mph 77% 0.00 in 0 W/m2
21:34 59 °F 51.8 °F 29.80 in WNW 3.7 mph 7 mph 77% 0.00 in 0 W/m2
21:38 58.8 °F 51.6 °F 29.80 in WNW 2.7 mph 4 mph 77% 0.00 in 0 W/m2
21:44 58.7 °F 51.5 °F 29.80 in WNW 3.3 mph 6 mph 77% 0.00 in 0 W/m2
21:49 58.6 °F 51.7 °F 29.80 in WNW 3.1 mph 5 mph 78% 0.00 in 0 W/m2
21:54 58.5 °F 51.6 °F 29.80 in WNW 3.3 mph 5 mph 78% 0.00 in 0 W/m2
21:59 58.3 °F 51.4 °F 29.80 in WNW 3.7 mph 6 mph 78% 0.00 in 0 W/m2
22:04 58.1 °F 51.3 °F 29.80 in WNW 1.8 mph 5 mph 78% 0.00 in 0 W/m2
22:09 58 °F 51.2 °F 29.80 in WNW 2 mph 4 mph 78% 0.00 in 0 W/m2
22:14 57.9 °F 51.1 °F 29.80 in WNW 3.3 mph 5 mph 78% 0.00 in 0 W/m2
22:19 57.9 °F 51.1 °F 29.80 in West 3.2 mph 7 mph 78% 0.00 in 0 W/m2
22:24 57.9 °F 51.1 °F 29.80 in West 3.7 mph 7 mph 78% 0.00 in 0 W/m2
22:29 57.9 °F 51.1 °F 29.80 in West 3.7 mph 6 mph 78% 0.00 in 0 W/m2
22:34 57.7 °F 50.9 °F 29.80 in West 3.1 mph 6 mph 78% 0.00 in 0 W/m2
22:39 57.7 °F 50.9 °F 29.79 in WSW 3 mph 6 mph 78% 0.00 in 0 W/m2
22:44 57.7 °F 50.8 °F 29.79 in West 2.5 mph 6 mph 78% 0.00 in 0 W/m2
22:49 57.6 °F 50.8 °F 29.79 in West 3.5 mph 5 mph 78% 0.00 in 0 W/m2
22:54 57.6 °F 50.7 °F 29.79 in West 2.9 mph 7 mph 78% 0.00 in 0 W/m2
22:59 57.5 °F 50.6 °F 29.79 in West 2.7 mph 5 mph 78% 0.00 in 0 W/m2
23:04 57.4 °F 50.5 °F 29.79 in West 3.6 mph 6 mph 78% 0.00 in 0 W/m2
23:09 57.4 °F 50.5 °F 29.79 in West 2.9 mph 5 mph 78% 0.00 in 0 W/m2
23:14 57.4 °F 50.5 °F 29.78 in WNW 3.7 mph 6 mph 78% 0.00 in 0 W/m2
23:19 57.3 °F 50.4 °F 29.78 in WNW 2.8 mph 6 mph 78% 0.00 in 0 W/m2
23:24 57.2 °F 50.4 °F 29.78 in WNW 3.6 mph 6 mph 78% 0.00 in 0 W/m2
23:29 57 °F 50.2 °F 29.78 in WNW 2.4 mph 5 mph 78% 0.00 in 0 W/m2
23:34 57 °F 50.3 °F 29.78 in WNW 2.7 mph 5 mph 78.4% 0.00 in 0 W/m2
23:39 57 °F 50.5 °F 29.78 in West 3.4 mph 5 mph 79% 0.00 in 0 W/m2
23:44 57 °F 50.5 °F 29.77 in West 3.9 mph 6 mph 79% 0.00 in 0 W/m2
23:49 57 °F 50.5 °F 29.77 in West 3.4 mph 6 mph 79% 0.00 in 0 W/m2
23:54 57 °F 50.5 °F 29.77 in West 3.6 mph 7 mph 79% 0.00 in 0 W/m2
23:59 56.9 °F 50.4 °F 29.77 in WNW 4.4 mph 6 mph 79% 0.00 in 0 W/m2
Bath Spa Weather
Compliments of Weather Underground - 2 mb